Time;durP1;ratioP1;P1;durP2;ratioP2;P2;SDS_P1;SDS_P2;PMS_P1;PMS_P2;Temp;Humidity;BMP_temperature;BMP_pressure;BME280_temperature;BME280_humidity;BME280_pressure;Samples;Min_cycle;Max_cycle;Signal;HPM_P1;HPM_P2
2021/12/14 00:01:00;;;;;;;13.07;10.63;;;8.90;99.90;;;;;;5094705;28;20500;-69
2021/12/14 00:03:29;;;;;;;17.65;11.35;;;8.90;99.90;;;;;;5087503;28;20127;-69
2021/12/14 00:05:55;;;;;;;13.55;10.88;;;9.00;99.90;;;;;;5095840;28;20059;-69
2021/12/14 00:08:23;;;;;;;14.30;11.10;;;9.00;99.90;;;;;;5089242;28;20100;-69
2021/12/14 00:13:47;;;;;;;15.02;11.52;;;9.20;99.90;;;;;;5104629;28;20066;-69
2021/12/14 00:16:15;;;;;;;12.32;10.60;;;9.10;99.90;;;;;;5102886;28;20048;-69
2021/12/14 00:18:42;;;;;;;12.68;10.43;;;9.10;99.90;;;;;;5104111;28;20503;-69
2021/12/14 00:21:19;;;;;;;13.65;11.30;;;9.00;99.90;;;;;;5102851;28;20055;-69
2021/12/14 00:24:07;;;;;;;14.48;10.18;;;9.00;99.90;;;;;;5102739;28;20059;-69
2021/12/14 00:26:44;;;;;;;14.45;11.05;;;9.00;99.90;;;;;;5104094;28;20496;-69
2021/12/14 00:29:24;;;;;;;13.43;10.75;;;8.90;99.90;;;;;;5082009;28;20460;-69
2021/12/14 00:31:50;;;;;;;15.63;10.95;;;8.90;99.90;;;;;;5082607;28;20044;-69
2021/12/14 00:34:23;;;;;;;13.63;10.73;;;8.90;99.90;;;;;;5082529;28;20044;-69
2021/12/14 00:36:50;;;;;;;14.43;10.98;;;8.90;99.90;;;;;;5073248;28;20041;-69
2021/12/14 00:39:17;;;;;;;16.27;11.45;;;8.90;99.90;;;;;;5081427;28;20043;-69
2021/12/14 00:41:43;;;;;;;12.38;10.68;;;8.90;99.90;;;;;;5083674;28;20048;-69
2021/12/14 00:44:10;;;;;;;14.07;11.70;;;8.90;99.90;;;;;;5075497;28;20053;-69
2021/12/14 00:46:37;;;;;;;14.57;11.25;;;8.90;99.90;;;;;;5074530;28;20063;-69
2021/12/14 00:49:09;;;;;;;15.77;11.93;;;9.00;99.90;;;;;;5086327;28;20051;-69
2021/12/14 00:51:35;;;;;;;14.95;10.98;;;8.90;99.90;;;;;;5087824;28;20078;-69
2021/12/14 00:54:04;;;;;;;15.88;12.18;;;8.80;99.90;;;;;;5087118;28;20049;-69
2021/12/14 00:56:33;;;;;;;17.15;12.70;;;8.80;99.90;;;;;;5087449;28;20050;-69
2021/12/14 00:59:01;;;;;;;14.13;11.48;;;8.90;99.90;;;;;;5075680;28;20044;-69
2021/12/14 01:01:31;;;;;;;14.32;10.77;;;8.80;99.90;;;;;;5083917;28;20055;-69
2021/12/14 01:04:03;;;;;;;16.00;11.82;;;8.90;99.90;;;;;;5086062;28;20040;-69
2021/12/14 01:06:34;;;;;;;15.77;12.75;;;8.80;99.90;;;;;;5087112;28;20044;-68
2021/12/14 01:09:02;;;;;;;16.65;13.00;;;8.80;99.90;;;;;;5085934;28;20112;-69
2021/12/14 01:11:41;;;;;;;16.25;12.10;;;8.80;99.90;;;;;;5086553;28;20120;-69
2021/12/14 01:14:11;;;;;;;15.63;12.73;;;8.90;99.90;;;;;;5054903;28;20161;-69
2021/12/14 01:19:36;;;;;;;16.52;13.50;;;8.90;99.90;;;;;;5083795;28;20059;-69
2021/12/14 01:27:30;;;;;;;17.38;13.15;;;9.00;99.90;;;;;;5065614;28;20088;-69
2021/12/14 01:29:56;;;;;;;19.08;13.85;;;8.80;99.90;;;;;;5063228;28;20060;-69
2021/12/14 01:32:26;;;;;;;16.67;13.40;;;8.70;99.90;;;;;;5066561;28;20053;-69
2021/12/14 01:34:52;;;;;;;18.05;14.02;;;8.80;99.90;;;;;;5067723;28;20048;-69
2021/12/14 01:37:23;;;;;;;17.45;13.77;;;8.70;99.90;;;;;;5067451;28;20076;-69
2021/12/14 01:42:29;;;;;;;19.17;14.27;;;8.80;99.90;;;;;;5066230;28;20049;-69
2021/12/14 01:44:56;;;;;;;16.83;13.45;;;8.80;99.90;;;;;;5061083;28;20096;-69
2021/12/14 01:47:27;;;;;;;19.70;15.02;;;8.90;99.90;;;;;;5058542;28;20076;-69
2021/12/14 01:49:53;;;;;;;21.02;14.63;;;8.80;99.90;;;;;;5066146;28;20049;-69
2021/12/14 01:52:23;;;;;;;19.35;14.98;;;8.90;99.90;;;;;;5067540;28;20041;-69
2021/12/14 01:54:54;;;;;;;19.80;15.40;;;8.90;99.90;;;;;;5065955;28;20056;-69
2021/12/14 01:57:24;;;;;;;22.92;15.80;;;8.90;99.90;;;;;;5067619;28;20037;-69
2021/12/14 01:59:55;;;;;;;20.23;16.38;;;8.90;99.90;;;;;;5067136;28;20084;-69
2021/12/14 02:02:31;;;;;;;23.67;16.65;;;8.90;99.90;;;;;;5067005;28;20098;-69
2021/12/14 02:05:00;;;;;;;21.48;15.40;;;8.60;99.90;;;;;;5066126;28;20049;-69
2021/12/14 02:07:28;;;;;;;20.97;15.47;;;8.70;99.90;;;;;;5065868;28;20175;-69
2021/12/14 02:10:02;;;;;;;20.00;15.80;;;8.70;99.90;;;;;;5067054;28;20045;-69
2021/12/14 02:12:29;;;;;;;23.50;15.95;;;8.80;99.90;;;;;;5065598;28;20052;-69
2021/12/14 02:15:07;;;;;;;23.42;15.77;;;8.80;99.90;;;;;;5067523;28;20072;-69
2021/12/14 02:17:33;;;;;;;23.42;16.80;;;8.80;99.90;;;;;;5065956;28;20488;-69
2021/12/14 02:19:59;;;;;;;20.90;15.52;;;8.70;99.90;;;;;;5065780;28;20052;-69
2021/12/14 02:22:27;;;;;;;19.50;15.00;;;8.70;99.90;;;;;;5065764;28;20105;-69
2021/12/14 02:24:52;;;;;;;23.70;17.23;;;8.80;99.90;;;;;;5065426;28;20056;-69
2021/12/14 02:27:19;;;;;;;22.65;15.75;;;8.70;99.90;;;;;;5047259;28;20092;-69
2021/12/14 02:29:47;;;;;;;22.88;16.52;;;8.70;99.90;;;;;;5058542;28;20118;-69
2021/12/14 02:32:18;;;;;;;22.85;15.95;;;8.80;99.90;;;;;;5083663;28;20037;-69
2021/12/14 02:34:48;;;;;;;22.20;16.65;;;8.80;99.90;;;;;;5073264;28;20052;-69
2021/12/14 02:37:15;;;;;;;23.38;17.02;;;8.80;99.90;;;;;;5078000;28;20056;-69
2021/12/14 02:42:12;;;;;;;20.85;14.57;;;8.90;99.90;;;;;;5084129;28;20052;-69
2021/12/14 02:44:38;;;;;;;20.10;15.05;;;8.90;99.90;;;;;;5084933;28;20053;-69
2021/12/14 02:47:10;;;;;;;22.13;16.40;;;8.80;99.90;;;;;;5071057;28;20046;-69
2021/12/14 02:49:39;;;;;;;23.63;16.02;;;8.60;99.90;;;;;;5071860;28;20056;-69
2021/12/14 02:52:11;;;;;;;21.58;16.38;;;8.70;99.90;;;;;;5058743;28;20075;-68
2021/12/14 02:54:43;;;;;;;22.50;16.70;;;8.70;99.90;;;;;;5084854;28;20055;-69
2021/12/14 02:57:14;;;;;;;21.10;16.40;;;8.70;99.90;;;;;;5085339;28;20120;-69
2021/12/14 02:59:41;;;;;;;;;;;8.60;99.90;;;;;;5079650;28;20553;-69
2021/12/14 03:02:12;;;;;;;24.40;17.40;;;8.50;99.90;;;;;;5074157;28;20304;-69
2021/12/14 03:04:45;;;;;;;26.15;16.73;;;8.50;99.90;;;;;;5084654;28;20055;-69
2021/12/14 03:07:12;;;;;;;21.80;16.73;;;8.50;99.90;;;;;;5050809;28;20120;-69
2021/12/14 03:09:59;;;;;;;24.90;17.98;;;8.50;99.90;;;;;;5084798;28;20603;-69
2021/12/14 03:12:33;;;;;;;25.90;18.20;;;8.60;99.90;;;;;;5072218;28;20045;-69
2021/12/14 03:15:19;;;;;;;26.30;18.45;;;8.60;99.90;;;;;;5083215;28;20040;-69
2021/12/14 03:17:49;;;;;;;28.52;19.27;;;8.60;99.90;;;;;;5084301;28;20574;-69
2021/12/14 03:20:24;;;;;;;27.23;19.42;;;8.50;99.90;;;;;;5084034;28;20047;-69
2021/12/14 03:23:21;;;;;;;25.30;18.17;;;8.50;99.90;;;;;;5083145;28;20044;-69
2021/12/14 03:25:52;;;;;;;27.10;17.40;;;8.50;99.90;;;;;;5050776;28;20053;-69
2021/12/14 03:28:21;;;;;;;28.48;18.65;;;8.60;99.90;;;;;;5086615;28;20059;-69
2021/12/14 03:30:47;;;;;;;27.60;18.50;;;8.60;99.90;;;;;;5101548;28;20050;-69
2021/12/14 03:33:18;;;;;;;31.65;19.40;;;8.50;99.90;;;;;;5107855;28;20079;-69
2021/12/14 03:35:56;;;;;;;26.48;18.23;;;8.40;99.90;;;;;;5105942;28;20071;-69
2021/12/14 03:38:42;;;;;;;25.80;17.85;;;8.50;99.90;;;;;;5085638;28;20047;-69
2021/12/14 03:41:15;;;;;;;28.85;19.08;;;8.60;99.90;;;;;;5107670;28;20044;-69
2021/12/14 03:43:58;;;;;;;28.63;18.52;;;8.60;99.90;;;;;;5103139;28;20063;-69
2021/12/14 03:46:27;;;;;;;25.73;19.17;;;8.70;99.90;;;;;;5084639;28;20044;-69
2021/12/14 03:48:53;;;;;;;30.27;19.08;;;8.60;99.90;;;;;;5107903;28;20047;-69
2021/12/14 03:51:21;;;;;;;27.40;18.60;;;8.70;99.90;;;;;;5107767;28;20039;-69
2021/12/14 03:53:49;;;;;;;28.40;18.30;;;8.50;99.90;;;;;;5106930;28;20058;-68
2021/12/14 03:56:15;;;;;;;30.45;20.42;;;8.50;99.90;;;;;;5108219;28;20040;-69
2021/12/14 03:58:42;;;;;;;28.95;19.83;;;8.60;99.90;;;;;;5095277;28;20126;-69
2021/12/14 04:01:16;;;;;;;31.33;19.98;;;8.50;99.90;;;;;;5105179;28;20044;-69
2021/12/14 04:03:44;;;;;;;31.40;20.63;;;8.40;99.90;;;;;;5087880;28;20439;-69
2021/12/14 04:06:11;;;;;;;31.00;21.60;;;8.40;99.90;;;;;;5067660;28;20116;-69
2021/12/14 04:08:38;;;;;;;32.90;20.50;;;8.30;99.90;;;;;;5084096;28;20079;-68
2021/12/14 04:11:05;;;;;;;33.28;21.67;;;8.20;99.90;;;;;;5096590;28;20047;-69
2021/12/14 04:13:38;;;;;;;30.55;21.33;;;8.30;99.90;;;;;;5125146;28;20504;-68
2021/12/14 04:16:05;;;;;;;32.70;20.45;;;8.20;99.90;;;;;;5096777;28;20105;-69
2021/12/14 04:18:31;;;;;;;29.38;22.40;;;8.30;99.90;;;;;;5123173;28;20059;-69
2021/12/14 04:21:00;;;;;;;32.15;21.65;;;8.30;99.90;;;;;;5106967;28;20070;-69
2021/12/14 04:23:30;;;;;;;30.08;21.80;;;8.30;99.90;;;;;;5106479;28;20060;-69
2021/12/14 04:25:58;;;;;;;32.10;21.45;;;8.20;99.90;;;;;;5125823;28;20044;-68
2021/12/14 04:28:33;;;;;;;30.42;21.90;;;8.30;99.90;;;;;;5089907;28;20048;-69
2021/12/14 04:30:59;;;;;;;33.22;22.70;;;8.30;99.90;;;;;;5086662;28;20141;-69
2021/12/14 04:33:29;;;;;;;31.48;22.17;;;8.30;99.90;;;;;;5079413;28;20087;-69
2021/12/14 04:35:56;;;;;;;32.80;20.50;;;8.20;99.90;;;;;;5122015;28;20043;-69
2021/12/14 04:38:30;;;;;;;33.63;22.08;;;8.20;99.90;;;;;;5125822;28;20127;-69
2021/12/14 04:52:11;;;;;;;34.60;22.58;;;8.20;99.90;;;;;;5098333;28;20093;-69
2021/12/14 04:55:09;;;;;;;37.38;25.30;;;8.10;99.90;;;;;;5089911;28;20076;-69
2021/12/14 04:57:39;;;;;;;35.13;22.42;;;8.20;99.90;;;;;;5101493;28;20111;-68
2021/12/14 05:00:26;;;;;;;36.40;23.38;;;8.30;99.90;;;;;;5103934;28;20055;-69
2021/12/14 05:02:54;;;;;;;35.88;23.63;;;8.20;99.90;;;;;;5105587;28;20076;-69
2021/12/14 05:05:28;;;;;;;34.13;22.33;;;8.20;99.90;;;;;;5121943;28;20075;-68
2021/12/14 05:11:03;;;;;;;37.13;25.38;;;8.10;99.90;;;;;;5044902;28;20136;-69
2021/12/14 05:13:44;;;;;;;36.60;24.67;;;8.10;99.90;;;;;;5045275;28;20075;-69
2021/12/14 05:16:23;;;;;;;34.53;23.33;;;8.10;99.90;;;;;;5045346;28;20057;-69
2021/12/14 05:18:56;;;;;;;37.30;23.77;;;8.20;99.90;;;;;;5045116;28;20061;-69
2021/12/14 05:21:30;;;;;;;38.97;25.27;;;8.20;99.90;;;;;;5045194;28;20045;-69
2021/12/14 05:23:57;;;;;;;38.17;24.83;;;8.20;99.90;;;;;;5045088;28;20272;-69
2021/12/14 05:26:23;;;;;;;36.85;25.02;;;8.20;99.90;;;;;;5045313;28;20045;-69
2021/12/14 05:28:49;;;;;;;36.00;25.23;;;8.30;99.90;;;;;;5043066;28;20056;-68
2021/12/14 05:31:16;;;;;;;38.42;25.23;;;8.20;99.90;;;;;;5061684;28;20516;-69
2021/12/14 05:33:42;;;;;;;36.63;24.45;;;8.30;99.90;;;;;;5045172;28;20109;-69
2021/12/14 05:36:14;;;;;;;33.38;22.98;;;8.30;99.90;;;;;;5060080;28;20037;-69
2021/12/14 05:44:05;;;;;;;34.50;24.08;;;8.50;99.90;;;;;;5036458;28;20077;-69
2021/12/14 05:46:31;;;;;;;39.88;25.83;;;8.40;99.90;;;;;;5076544;28;20059;-69
2021/12/14 05:49:02;;;;;;;39.75;26.60;;;8.40;99.90;;;;;;5110464;28;20043;-69
2021/12/14 05:51:31;;;;;;;38.78;25.92;;;8.30;99.90;;;;;;5109914;28;20514;-68
2021/12/14 05:53:58;;;;;;;41.25;26.65;;;8.30;99.90;;;;;;5109608;28;20055;-69
2021/12/14 05:56:25;;;;;;;40.95;26.17;;;8.40;99.90;;;;;;5128083;28;20048;-69
2021/12/14 05:58:53;;;;;;;40.00;26.23;;;8.30;99.90;;;;;;5120906;28;20047;-69
2021/12/14 06:01:24;;;;;;;41.40;26.45;;;8.30;99.90;;;;;;5115834;28;20047;-69
2021/12/14 06:03:55;;;;;;;40.85;27.73;;;8.30;99.90;;;;;;5109794;28;20051;-69
2021/12/14 06:06:37;;;;;;;40.47;27.27;;;8.20;99.90;;;;;;5097548;28;20052;-69
2021/12/14 06:09:08;;;;;;;45.13;29.58;;;8.30;99.90;;;;;;5100709;28;20048;-69
2021/12/14 06:11:34;;;;;;;44.05;28.50;;;8.20;99.90;;;;;;5096427;28;20052;-69
2021/12/14 06:14:01;;;;;;;43.83;28.70;;;8.30;99.90;;;;;;5113779;28;20056;-69
2021/12/14 06:16:31;;;;;;;43.63;26.65;;;8.20;99.90;;;;;;5081386;28;20055;-67
2021/12/14 06:19:25;;;;;;;45.67;29.25;;;8.40;99.90;;;;;;5108411;28;20110;-72
2021/12/14 06:21:54;;;;;;;48.58;30.92;;;8.40;99.90;;;;;;5104507;28;20071;-69
2021/12/14 06:24:23;;;;;;;46.63;30.30;;;8.30;99.90;;;;;;5061962;28;20052;-69
2021/12/14 06:26:51;;;;;;;49.80;30.85;;;8.30;99.90;;;;;;5076759;28;20588;-67
2021/12/14 06:29:25;;;;;;;49.22;31.70;;;8.20;99.90;;;;;;5122124;27;20263;-68
2021/12/14 06:31:52;;;;;;;51.13;30.70;;;8.10;99.90;;;;;;5117633;27;20538;-69
2021/12/14 06:34:24;;;;;;;49.63;31.38;;;8.20;99.90;;;;;;5102893;28;20227;-69
2021/12/14 06:40:06;;;;;;;54.95;32.70;;;8.10;99.90;;;;;;5087064;28;20350;-68
2021/12/14 06:42:34;;;;;;;53.33;33.03;;;8.10;99.90;;;;;;5083723;28;20077;-68
2021/12/14 06:45:12;;;;;;;53.72;33.08;;;8.20;99.90;;;;;;5071640;28;20043;-69
2021/12/14 06:47:40;;;;;;;54.25;33.42;;;8.10;99.90;;;;;;5100199;28;20100;-68
2021/12/14 06:50:11;;;;;;;58.55;32.70;;;8.20;99.90;;;;;;5089740;28;20051;-69
2021/12/14 06:52:37;;;;;;;55.25;34.25;;;8.10;99.90;;;;;;5100067;28;20476;-68
2021/12/14 06:55:04;;;;;;;58.15;34.50;;;8.10;99.90;;;;;;5086780;28;20567;-69
2021/12/14 06:57:30;;;;;;;55.13;32.72;;;8.10;99.90;;;;;;5100669;28;20044;-68
2021/12/14 06:59:57;;;;;;;55.35;32.75;;;8.20;99.90;;;;;;5064790;28;20043;-71
2021/12/14 07:02:26;;;;;;;56.17;34.13;;;8.20;99.90;;;;;;5084651;28;20176;-71
2021/12/14 07:04:52;;;;;;;54.83;33.88;;;8.10;99.90;;;;;;5089122;28;20051;-72
2021/12/14 07:07:23;;;;;;;59.40;34.97;;;8.20;99.90;;;;;;5117202;28;20044;-71
2021/12/14 07:09:55;;;;;;;53.10;34.03;;;8.20;99.90;;;;;;5088452;28;20079;-70
2021/12/14 07:12:31;;;;;;;54.10;33.33;;;8.20;99.90;;;;;;5099496;28;20115;-70
2021/12/14 07:14:58;;;;;;;54.75;34.25;;;8.20;99.90;;;;;;5067281;28;20051;-66
2021/12/14 07:17:31;;;;;;;57.20;34.28;;;8.20;99.90;;;;;;5099593;28;20051;-65
2021/12/14 07:20:06;;;;;;;58.88;35.97;;;8.20;99.90;;;;;;5108507;28;20400;-66
2021/12/14 07:22:38;;;;;;;57.22;34.42;;;8.20;99.90;;;;;;5103155;28;20048;-66
2021/12/14 07:25:14;;;;;;;62.95;37.45;;;8.20;99.90;;;;;;5107693;28;20058;-67
2021/12/14 07:27:56;;;;;;;67.20;36.65;;;8.10;99.90;;;;;;5084822;28;20052;-66
2021/12/14 07:30:30;;;;;;;66.93;36.97;;;8.10;99.90;;;;;;5082785;28;20045;-66
2021/12/14 07:33:01;;;;;;;65.75;37.50;;;8.10;99.90;;;;;;5107997;28;20044;-65
2021/12/14 07:35:32;;;;;;;62.72;35.25;;;8.10;99.90;;;;;;5094534;28;20051;-63
2021/12/14 07:38:04;;;;;;;71.30;37.78;;;8.10;99.90;;;;;;5114967;28;20040;-64
2021/12/14 07:40:39;;;;;;;65.68;35.60;;;8.00;99.90;;;;;;5061617;28;20052;-63
2021/12/14 07:43:34;;;;;;;67.65;38.67;;;8.00;99.90;;;;;;5095365;28;20047;-64
2021/12/14 07:46:00;;;;;;;66.75;36.95;;;8.10;99.90;;;;;;5100476;28;20077;-63
2021/12/14 07:49:04;;;;;;;64.80;36.15;;;8.10;99.90;;;;;;5101134;28;20059;-64
2021/12/14 07:51:34;;;;;;;65.97;37.80;;;8.10;99.90;;;;;;5004457;28;20080;-63
2021/12/14 07:54:11;;;;;;;66.90;37.47;;;8.10;99.90;;;;;;5003339;28;20054;-64
2021/12/14 07:56:45;;;;;;;69.38;39.53;;;8.10;99.90;;;;;;5005938;28;20058;-63
2021/12/14 07:59:25;;;;;;;66.80;38.70;;;8.20;99.90;;;;;;4998916;28;20046;-63
2021/12/14 08:02:14;;;;;;;69.93;37.17;;;8.10;99.90;;;;;;4979233;28;20707;-64
2021/12/14 08:04:45;;;;;;;69.65;37.42;;;8.20;99.90;;;;;;4980235;28;20061;-65
2021/12/14 08:07:25;;;;;;;74.22;39.00;;;8.20;99.90;;;;;;5024281;28;20049;-65
2021/12/14 08:09:52;;;;;;;76.43;39.40;;;8.20;99.90;;;;;;5004919;28;20140;-65
2021/12/14 08:12:38;;;;;;;75.05;39.38;;;8.20;99.90;;;;;;5018952;28;20065;-65
2021/12/14 08:15:09;;;;;;;72.97;39.97;;;8.20;99.90;;;;;;4989616;28;20087;-65
2021/12/14 08:17:36;;;;;;;72.30;39.22;;;8.10;99.90;;;;;;5007569;28;20054;-65
2021/12/14 08:20:05;;;;;;;74.32;40.60;;;8.20;99.90;;;;;;4990762;28;20125;-65
2021/12/14 08:22:34;;;;;;;72.28;39.10;;;8.10;99.90;;;;;;5016337;28;20082;-65
2021/12/14 08:25:01;;;;;;;75.68;40.42;;;8.20;99.90;;;;;;5041570;28;20150;-65
2021/12/14 08:27:29;;;;;;;79.00;39.63;;;8.20;99.90;;;;;;5092925;28;20090;-65
2021/12/14 08:29:59;;;;;;;76.13;40.90;;;8.20;99.90;;;;;;5085111;28;20604;-64
2021/12/14 08:32:32;;;;;;;75.97;40.38;;;8.30;99.90;;;;;;5118428;28;20039;-65
2021/12/14 08:35:02;;;;;;;76.00;40.03;;;8.30;99.90;;;;;;5102497;28;20060;-64
2021/12/14 08:37:31;;;;;;;;;;;8.30;99.90;;;;;;5100830;28;20039;-64
2021/12/14 08:40:02;;;;;;;73.20;40.35;;;8.30;99.90;;;;;;5104920;28;19923;-64
2021/12/14 08:42:46;;;;;;;75.00;39.75;;;8.20;99.90;;;;;;5114351;28;20050;-64
2021/12/14 08:45:26;;;;;;;70.70;39.35;;;8.30;99.90;;;;;;5093185;28;20131;-64
2021/12/14 08:48:04;;;;;;;80.93;40.78;;;8.30;99.90;;;;;;5098307;28;20048;-64
2021/12/14 08:50:33;;;;;;;72.72;39.08;;;8.30;99.90;;;;;;5100364;28;20048;-64
2021/12/14 08:52:59;;;;;;;74.85;40.95;;;8.40;99.90;;;;;;5090759;28;20528;-64
2021/12/14 08:55:31;;;;;;;70.13;39.00;;;8.40;99.90;;;;;;5106590;28;20535;-65
2021/12/14 08:57:57;;;;;;;76.82;39.70;;;8.40;99.90;;;;;;5083038;28;20046;-65
2021/12/14 09:00:27;;;;;;;72.93;40.08;;;8.40;99.90;;;;;;5101567;28;20044;-65
2021/12/14 09:02:59;;;;;;;67.90;39.30;;;8.40;99.90;;;;;;5099226;28;20043;-64
2021/12/14 09:05:47;;;;;;;73.63;40.40;;;8.40;99.90;;;;;;5085679;28;20056;-62
2021/12/14 09:08:17;;;;;;;72.28;41.08;;;8.40;99.90;;;;;;5099525;28;20058;-65
2021/12/14 09:10:46;;;;;;;69.82;38.70;;;8.40;99.90;;;;;;5097103;28;20040;-65
2021/12/14 09:13:14;;;;;;;68.30;39.47;;;8.50;99.90;;;;;;5092343;28;20050;-65
2021/12/14 09:16:04;;;;;;;70.82;39.90;;;8.40;99.90;;;;;;5077387;28;20377;-65
2021/12/14 09:18:36;;;;;;;69.07;40.17;;;8.50;99.90;;;;;;5106869;28;20072;-65
2021/12/14 09:21:17;;;;;;;74.15;42.22;;;8.50;99.90;;;;;;5119869;27;20159;-66
2021/12/14 09:23:48;;;;;;;71.30;40.28;;;8.50;99.90;;;;;;5107390;28;20415;-63
2021/12/14 09:26:23;;;;;;;67.15;38.75;;;8.40;99.90;;;;;;5105203;27;20070;-63
2021/12/14 09:28:49;;;;;;;71.22;39.05;;;8.50;99.90;;;;;;5116478;27;20052;-63
2021/12/14 09:31:20;;;;;;;63.63;38.78;;;8.50;99.90;;;;;;5121088;27;20050;-64
2021/12/14 09:33:50;;;;;;;69.00;38.38;;;8.50;99.90;;;;;;5125126;27;20574;-64
2021/12/14 09:36:16;;;;;;;67.80;38.28;;;8.50;99.90;;;;;;5114884;27;20051;-64
2021/12/14 09:38:45;;;;;;;66.57;36.80;;;8.50;99.90;;;;;;5084724;28;20040;-64
2021/12/14 09:41:14;;;;;;;65.55;37.20;;;8.50;99.90;;;;;;5101482;28;20070;-64
2021/12/14 09:43:41;;;;;;;65.60;37.28;;;8.60;99.90;;;;;;5093492;28;20055;-64
2021/12/14 09:46:08;;;;;;;68.97;39.67;;;8.50;99.90;;;;;;5067312;28;20062;-63
2021/12/14 09:48:39;;;;;;;68.60;38.33;;;8.60;99.90;;;;;;5099578;28;20043;-64
2021/12/14 09:51:10;;;;;;;60.40;37.35;;;8.50;99.90;;;;;;5102273;27;20569;-63
2021/12/14 09:53:41;;;;;;;66.57;39.08;;;8.60;99.90;;;;;;5126465;27;20140;-64
2021/12/14 09:56:07;;;;;;;66.38;38.50;;;8.60;99.90;;;;;;5102988;27;20819;-63
2021/12/14 09:58:40;;;;;;;68.00;38.78;;;8.60;99.90;;;;;;5094268;28;20059;-63
2021/12/14 10:01:26;;;;;;;69.65;40.33;;;8.60;99.90;;;;;;5099304;28;20115;-65
2021/12/14 10:03:54;;;;;;;63.63;37.72;;;8.60;99.90;;;;;;5098655;28;20054;-66
2021/12/14 10:06:25;;;;;;;62.75;36.47;;;8.70;99.90;;;;;;5100445;27;20140;-66
2021/12/14 10:08:58;;;;;;;64.80;38.28;;;8.80;99.90;;;;;;5106752;28;20039;-66
2021/12/14 10:11:42;;;;;;;62.30;37.95;;;8.70;99.90;;;;;;5094366;28;20078;-66
2021/12/14 10:14:11;;;;;;;61.03;37.58;;;8.70;99.90;;;;;;5139067;27;20043;-65
2021/12/14 10:16:37;;;;;;;65.28;38.10;;;8.80;99.90;;;;;;5077464;28;20048;-66
2021/12/14 10:19:07;;;;;;;67.55;39.90;;;8.70;99.90;;;;;;5131856;27;20066;-66
2021/12/14 10:21:35;;;;;;;;;;;8.70;99.90;;;;;;5117351;27;20117;-66
2021/12/14 10:24:03;;;;;;;68.38;40.33;;;8.70;99.90;;;;;;5136723;27;19923;-66
2021/12/14 10:26:32;;;;;;;74.65;40.78;;;8.60;99.90;;;;;;5084303;28;20059;-65
2021/12/14 10:29:00;;;;;;;66.00;37.65;;;8.60;99.90;;;;;;5097319;27;20043;-66
2021/12/14 10:31:36;;;;;;;71.15;38.85;;;8.70;99.90;;;;;;5096533;28;20051;-66
2021/12/14 10:34:08;;;;;;;67.18;37.85;;;8.70;99.90;;;;;;5122796;27;20095;-66
2021/12/14 10:36:40;;;;;;;66.05;38.72;;;8.70;99.90;;;;;;5118717;27;20161;-66
2021/12/14 10:44:27;;;;;;;67.03;39.78;;;8.70;99.90;;;;;;5090460;28;20048;-65
2021/12/14 10:46:55;;;;;;;69.65;39.53;;;8.70;99.90;;;;;;5109544;28;20535;-66
2021/12/14 10:49:24;;;;;;;65.25;36.67;;;8.70;99.90;;;;;;5123613;27;20051;-66
2021/12/14 10:51:57;;;;;;;73.68;40.22;;;8.70;99.90;;;;;;5088939;28;20065;-66
2021/12/14 10:54:24;;;;;;;68.20;39.33;;;8.70;99.90;;;;;;5107317;28;20099;-66
2021/12/14 10:56:59;;;;;;;65.97;37.97;;;8.70;99.90;;;;;;5094001;28;20059;-66
2021/12/14 10:59:35;;;;;;;57.90;35.35;;;8.80;99.90;;;;;;5129156;27;20042;-65
2021/12/14 11:02:01;;;;;;;60.17;36.30;;;8.80;99.90;;;;;;5091307;28;20110;-65
2021/12/14 11:04:37;;;;;;;61.67;36.55;;;8.90;99.90;;;;;;5121314;27;20161;-66
2021/12/14 11:07:13;;;;;;;63.30;35.88;;;8.90;99.90;;;;;;5111316;27;20043;-66
2021/12/14 11:12:09;;;;;;;57.90;35.78;;;8.90;99.90;;;;;;5069032;28;20048;-66
2021/12/14 11:14:37;;;;;;;66.93;38.03;;;8.90;99.90;;;;;;5099731;28;20070;-67
2021/12/14 11:20:06;;;;;;;69.63;39.00;;;8.70;99.90;;;;;;5115383;28;20043;-67
2021/12/14 11:22:43;;;;;;;71.88;37.40;;;8.70;99.90;;;;;;5106059;28;20136;-67
2021/12/14 11:25:14;;;;;;;72.00;37.85;;;8.70;99.90;;;;;;5114074;28;20114;-66
2021/12/14 11:27:46;;;;;;;72.50;37.30;;;8.70;99.90;;;;;;5070430;28;20043;-67
2021/12/14 11:30:21;;;;;;;79.45;39.63;;;8.70;99.90;;;;;;5090307;28;20089;-69
2021/12/14 11:33:06;;;;;;;77.43;39.75;;;8.60;99.90;;;;;;5100057;28;20108;-68
2021/12/14 11:35:40;;;;;;;73.15;36.28;;;8.80;99.90;;;;;;5082684;28;20061;-68
2021/12/14 11:38:12;;;;;;;75.80;37.38;;;8.70;99.90;;;;;;5071625;28;20059;-67
2021/12/14 11:40:38;;;;;;;69.05;36.42;;;8.70;99.90;;;;;;5083951;28;20054;-68
2021/12/14 11:43:14;;;;;;;72.65;35.45;;;8.80;99.90;;;;;;5109868;28;20185;-67
2021/12/14 11:45:42;;;;;;;81.68;39.30;;;8.70;99.90;;;;;;5083502;28;20054;-67
2021/12/14 11:48:08;;;;;;;71.90;36.22;;;8.70;99.90;;;;;;5117767;28;20621;-67
2021/12/14 11:50:46;;;;;;;68.57;35.92;;;8.70;99.90;;;;;;5090720;28;20039;-67
2021/12/14 11:53:17;;;;;;;66.78;34.83;;;8.70;99.90;;;;;;5101238;28;20058;-67
2021/12/14 11:56:10;;;;;;;68.35;36.22;;;8.70;99.90;;;;;;5107625;28;20132;-67
2021/12/14 11:58:38;;;;;;;65.53;34.45;;;8.70;99.90;;;;;;5106954;28;20036;-67
2021/12/14 12:01:14;;;;;;;63.38;35.00;;;8.60;99.90;;;;;;5106282;28;20060;-67
2021/12/14 12:03:43;;;;;;;70.20;34.97;;;8.70;99.90;;;;;;5100182;28;20062;-67
2021/12/14 12:09:29;;;;;;;72.93;36.58;;;8.70;99.90;;;;;;5088663;28;20043;-66
2021/12/14 12:12:03;;;;;;;74.20;36.80;;;8.70;99.90;;;;;;5086864;28;20056;-66
2021/12/14 12:14:32;;;;;;;68.97;36.70;;;8.70;99.90;;;;;;5095209;28;20101;-65
2021/12/14 12:17:22;;;;;;;63.22;34.13;;;8.70;99.90;;;;;;5065717;28;20059;-65
2021/12/14 12:20:19;;;;;;;74.07;36.40;;;8.70;99.90;;;;;;5068260;28;20381;-65
2021/12/14 12:23:12;;;;;;;75.38;36.05;;;8.70;99.90;;;;;;5051228;28;20052;-65
2021/12/14 12:25:40;;;;;;;68.47;34.60;;;8.70;99.90;;;;;;5102814;28;20062;-66
2021/12/14 12:28:13;;;;;;;68.93;33.92;;;8.70;99.90;;;;;;5077564;28;20440;-65
2021/12/14 12:30:55;;;;;;;62.30;32.35;;;8.80;99.90;;;;;;5082764;28;20137;-65
2021/12/14 12:33:34;;;;;;;61.00;31.55;;;8.70;99.90;;;;;;5096322;28;20044;-65
2021/12/14 12:36:02;;;;;;;59.70;31.55;;;8.70;99.90;;;;;;5085579;28;20048;-65
2021/12/14 12:38:39;;;;;;;54.95;28.00;;;8.80;99.90;;;;;;5096637;28;20048;-64
2021/12/14 12:41:29;;;;;;;59.05;31.35;;;8.80;99.90;;;;;;5075292;28;20100;-65
2021/12/14 12:44:00;;;;;;;49.97;26.58;;;8.80;99.90;;;;;;5106150;28;20055;-65
2021/12/14 12:46:33;;;;;;;59.25;29.33;;;8.70;99.90;;;;;;5090692;28;20060;-64
2021/12/14 12:49:07;;;;;;;54.40;26.80;;;8.80;99.90;;;;;;5090888;28;20043;-64
2021/12/14 12:51:49;;;;;;;56.22;27.73;;;8.80;99.90;;;;;;5089963;28;20055;-66
2021/12/14 12:54:24;;;;;;;56.55;27.15;;;8.80;99.90;;;;;;5098277;28;20056;-65
2021/12/14 12:57:33;;;;;;;50.03;25.73;;;8.80;99.90;;;;;;5099417;28;20525;-65
2021/12/14 13:00:24;;;;;;;53.40;26.15;;;8.80;99.90;;;;;;5095432;28;20071;-67
2021/12/14 13:03:12;;;;;;;47.17;26.02;;;8.90;99.90;;;;;;5104653;28;20454;-67
2021/12/14 13:05:53;;;;;;;51.45;25.48;;;8.80;99.90;;;;;;5088836;28;20040;-68
2021/12/14 13:08:19;;;;;;;51.35;26.10;;;8.90;99.90;;;;;;5111265;28;20070;-67
2021/12/14 13:10:47;;;;;;;57.10;26.55;;;8.90;99.90;;;;;;5105417;28;20039;-68
2021/12/14 13:13:30;;;;;;;52.30;26.48;;;8.90;99.90;;;;;;5080952;28;20119;-67
2021/12/14 13:16:01;;;;;;;54.35;27.13;;;8.90;99.90;;;;;;5070756;28;20045;-68
2021/12/14 13:18:32;;;;;;;47.35;24.65;;;8.90;99.90;;;;;;5066787;28;20040;-67
2021/12/14 13:21:07;;;;;;;53.58;25.05;;;8.90;99.90;;;;;;5079834;28;20819;-67
2021/12/14 13:24:05;;;;;;;50.53;24.85;;;8.90;99.90;;;;;;5086327;28;20048;-68
2021/12/14 13:26:39;;;;;;;54.38;25.63;;;8.90;99.90;;;;;;5082785;28;20313;-67
2021/12/14 13:29:13;;;;;;;60.05;25.08;;;9.00;99.90;;;;;;5072595;28;20060;-67
2021/12/14 13:31:50;;;;;;;55.42;26.67;;;8.90;99.90;;;;;;5073418;28;20109;-67
2021/12/14 13:34:24;;;;;;;52.13;24.77;;;9.00;99.90;;;;;;5054227;28;20060;-68
2021/12/14 13:36:51;;;;;;;56.55;26.83;;;9.00;99.90;;;;;;5068568;28;20071;-68
2021/12/14 13:39:19;;;;;;;59.45;27.27;;;8.90;99.90;;;;;;5070944;28;20364;-68
2021/12/14 13:42:00;;;;;;;57.45;25.63;;;9.00;99.90;;;;;;5081684;28;20048;-68
2021/12/14 13:44:41;;;;;;;57.53;25.60;;;9.00;99.90;;;;;;5083293;28;20037;-68
2021/12/14 13:47:11;;;;;;;48.83;25.08;;;8.90;99.90;;;;;;5084487;28;20126;-68
2021/12/14 13:49:39;;;;;;;;;;;9.00;99.90;;;;;;5084569;28;20134;-68
2021/12/14 13:52:07;;;;;;;58.22;26.92;;;9.00;99.90;;;;;;5088340;27;19923;-68
2021/12/14 13:55:02;;;;;;;56.13;24.98;;;9.00;99.90;;;;;;5102337;28;20083;-67
2021/12/14 13:57:28;;;;;;;53.45;25.73;;;8.90;99.90;;;;;;5094971;28;20531;-67